sensor_id;sensor_type;location;lat;lon;timestamp;temperature;humidity
14252;DHT22;7210;51.502;10.722;2023-09-19T00:02:41;17.80;1.00
14252;DHT22;7210;51.502;10.722;2023-09-19T00:05:17;17.60;1.00
14252;DHT22;7210;51.502;10.722;2023-09-19T00:07:50;17.50;1.00
14252;DHT22;7210;51.502;10.722;2023-09-19T00:10:24;17.40;1.00
14252;DHT22;7210;51.502;10.722;2023-09-19T00:12:52;17.30;1.00
14252;DHT22;7210;51.502;10.722;2023-09-19T00:15:23;17.20;1.00
14252;DHT22;7210;51.502;10.722;2023-09-19T00:17:51;17.20;1.00
14252;DHT22;7210;51.502;10.722;2023-09-19T00:20:23;17.10;1.00
14252;DHT22;7210;51.502;10.722;2023-09-19T00:22:51;17.10;1.00
14252;DHT22;7210;51.502;10.722;2023-09-19T00:25:23;17.10;1.00
14252;DHT22;7210;51.502;10.722;2023-09-19T00:27:52;17.00;1.00
14252;DHT22;7210;51.502;10.722;2023-09-19T00:30:25;16.90;1.00
14252;DHT22;7210;51.502;10.722;2023-09-19T00:32:52;16.90;1.00
14252;DHT22;7210;51.502;10.722;2023-09-19T00:35:24;16.80;1.00
14252;DHT22;7210;51.502;10.722;2023-09-19T00:37:51;16.70;1.00
14252;DHT22;7210;51.502;10.722;2023-09-19T00:40:23;16.50;1.00
14252;DHT22;7210;51.502;10.722;2023-09-19T00:42:52;16.50;1.00
14252;DHT22;7210;51.502;10.722;2023-09-19T00:45:33;16.50;1.00
14252;DHT22;7210;51.502;10.722;2023-09-19T00:48:04;16.40;1.00
14252;DHT22;7210;51.502;10.722;2023-09-19T00:50:36;16.50;1.00
14252;DHT22;7210;51.502;10.722;2023-09-19T00:53:03;16.70;1.00
14252;DHT22;7210;51.502;10.722;2023-09-19T00:55:34;16.80;1.00
14252;DHT22;7210;51.502;10.722;2023-09-19T00:58:06;17.00;1.00
14252;DHT22;7210;51.502;10.722;2023-09-19T01:00:35;17.20;1.00
14252;DHT22;7210;51.502;10.722;2023-09-19T01:03:12;17.40;1.00
14252;DHT22;7210;51.502;10.722;2023-09-19T01:05:40;17.50;1.00
14252;DHT22;7210;51.502;10.722;2023-09-19T01:08:11;17.50;1.00
14252;DHT22;7210;51.502;10.722;2023-09-19T01:10:52;17.60;1.00
14252;DHT22;7210;51.502;10.722;2023-09-19T01:13:31;17.60;1.00
14252;DHT22;7210;51.502;10.722;2023-09-19T01:16:16;17.60;1.00
14252;DHT22;7210;51.502;10.722;2023-09-19T01:19:01;17.60;1.00
14252;DHT22;7210;51.502;10.722;2023-09-19T01:21:48;17.50;1.00
14252;DHT22;7210;51.502;10.722;2023-09-19T01:24:55;17.50;1.00
14252;DHT22;7210;51.502;10.722;2023-09-19T01:28:10;17.50;1.00
14252;DHT22;7210;51.502;10.722;2023-09-19T01:30:52;17.60;1.00
14252;DHT22;7210;51.502;10.722;2023-09-19T01:33:24;17.60;1.00
14252;DHT22;7210;51.502;10.722;2023-09-19T01:35:52;17.60;1.00
14252;DHT22;7210;51.502;10.722;2023-09-19T01:38:23;17.70;1.00
14252;DHT22;7210;51.502;10.722;2023-09-19T01:41:05;17.70;1.00
14252;DHT22;7210;51.502;10.722;2023-09-19T01:43:42;17.70;1.00
14252;DHT22;7210;51.502;10.722;2023-09-19T01:46:14;17.70;1.00
14252;DHT22;7210;51.502;10.722;2023-09-19T01:48:49;17.70;1.00
14252;DHT22;7210;51.502;10.722;2023-09-19T01:51:32;17.80;1.00
14252;DHT22;7210;51.502;10.722;2023-09-19T01:54:09;17.80;1.00
14252;DHT22;7210;51.502;10.722;2023-09-19T01:56:45;17.80;1.00
14252;DHT22;7210;51.502;10.722;2023-09-19T01:59:23;17.80;1.00
14252;DHT22;7210;51.502;10.722;2023-09-19T02:02:02;17.80;1.00
14252;DHT22;7210;51.502;10.722;2023-09-19T02:04:36;17.70;1.00
14252;DHT22;7210;51.502;10.722;2023-09-19T02:07:06;17.60;1.00
14252;DHT22;7210;51.502;10.722;2023-09-19T02:09:34;17.60;1.00
14252;DHT22;7210;51.502;10.722;2023-09-19T02:12:05;17.60;1.00
14252;DHT22;7210;51.502;10.722;2023-09-19T02:14:33;17.50;1.00
14252;DHT22;7210;51.502;10.722;2023-09-19T02:17:13;17.50;1.00
14252;DHT22;7210;51.502;10.722;2023-09-19T02:19:41;17.40;1.00
14252;DHT22;7210;51.502;10.722;2023-09-19T02:22:08;17.30;1.00
14252;DHT22;7210;51.502;10.722;2023-09-19T02:24:36;17.20;1.00
14252;DHT22;7210;51.502;10.722;2023-09-19T02:27:05;17.20;1.00
14252;DHT22;7210;51.502;10.722;2023-09-19T02:29:33;17.00;1.00
14252;DHT22;7210;51.502;10.722;2023-09-19T02:32:02;16.90;1.00
14252;DHT22;7210;51.502;10.722;2023-09-19T02:34:37;16.90;1.00
14252;DHT22;7210;51.502;10.722;2023-09-19T02:37:05;16.90;1.00
14252;DHT22;7210;51.502;10.722;2023-09-19T02:39:34;16.80;1.00
14252;DHT22;7210;51.502;10.722;2023-09-19T02:42:02;16.80;1.00
14252;DHT22;7210;51.502;10.722;2023-09-19T02:44:35;16.80;1.00
14252;DHT22;7210;51.502;10.722;2023-09-19T02:47:06;16.80;1.00
14252;DHT22;7210;51.502;10.722;2023-09-19T02:49:37;16.60;1.00
14252;DHT22;7210;51.502;10.722;2023-09-19T02:52:05;16.60;1.00
14252;DHT22;7210;51.502;10.722;2023-09-19T02:54:33;16.50;1.00
14252;DHT22;7210;51.502;10.722;2023-09-19T02:57:05;16.40;1.00
14252;DHT22;7210;51.502;10.722;2023-09-19T02:59:35;16.40;1.00
14252;DHT22;7210;51.502;10.722;2023-09-19T03:02:03;16.40;1.00
14252;DHT22;7210;51.502;10.722;2023-09-19T03:04:31;16.30;1.00
14252;DHT22;7210;51.502;10.722;2023-09-19T03:07:01;16.30;1.00
14252;DHT22;7210;51.502;10.722;2023-09-19T03:09:30;16.30;1.00
14252;DHT22;7210;51.502;10.722;2023-09-19T03:11:57;16.30;1.00
14252;DHT22;7210;51.502;10.722;2023-09-19T03:14:26;16.30;1.00
14252;DHT22;7210;51.502;10.722;2023-09-19T03:16:57;16.30;1.00
14252;DHT22;7210;51.502;10.722;2023-09-19T03:19:25;16.20;1.00
14252;DHT22;7210;51.502;10.722;2023-09-19T03:21:54;16.10;1.00
14252;DHT22;7210;51.502;10.722;2023-09-19T03:24:25;16.10;1.00
14252;DHT22;7210;51.502;10.722;2023-09-19T03:26:53;16.00;1.00
14252;DHT22;7210;51.502;10.722;2023-09-19T03:29:21;16.00;1.00
14252;DHT22;7210;51.502;10.722;2023-09-19T03:31:53;16.00;1.00
14252;DHT22;7210;51.502;10.722;2023-09-19T03:34:21;15.90;1.00
14252;DHT22;7210;51.502;10.722;2023-09-19T03:36:53;15.90;1.00
14252;DHT22;7210;51.502;10.722;2023-09-19T03:39:21;15.90;1.00
14252;DHT22;7210;51.502;10.722;2023-09-19T03:41:51;16.00;1.00
14252;DHT22;7210;51.502;10.722;2023-09-19T03:44:18;15.90;1.00
14252;DHT22;7210;51.502;10.722;2023-09-19T03:46:47;15.90;1.00
14252;DHT22;7210;51.502;10.722;2023-09-19T03:49:15;15.90;1.00
14252;DHT22;7210;51.502;10.722;2023-09-19T03:51:48;15.90;1.00
14252;DHT22;7210;51.502;10.722;2023-09-19T03:54:18;15.80;1.00
14252;DHT22;7210;51.502;10.722;2023-09-19T03:56:45;15.90;1.00
14252;DHT22;7210;51.502;10.722;2023-09-19T03:59:14;15.80;1.00
14252;DHT22;7210;51.502;10.722;2023-09-19T04:01:42;15.80;1.00
14252;DHT22;7210;51.502;10.722;2023-09-19T04:04:12;15.70;1.00
14252;DHT22;7210;51.502;10.722;2023-09-19T04:06:40;15.70;1.00
14252;DHT22;7210;51.502;10.722;2023-09-19T04:09:07;15.70;1.00
14252;DHT22;7210;51.502;10.722;2023-09-19T04:11:36;15.60;1.00
14252;DHT22;7210;51.502;10.722;2023-09-19T04:14:03;15.60;1.00
14252;DHT22;7210;51.502;10.722;2023-09-19T04:16:55;15.60;1.00
14252;DHT22;7210;51.502;10.722;2023-09-19T04:19:22;15.60;1.00
14252;DHT22;7210;51.502;10.722;2023-09-19T04:22:00;15.60;1.00
14252;DHT22;7210;51.502;10.722;2023-09-19T04:24:27;15.50;1.00
14252;DHT22;7210;51.502;10.722;2023-09-19T04:26:54;15.50;1.00
14252;DHT22;7210;51.502;10.722;2023-09-19T04:29:24;15.40;1.00
14252;DHT22;7210;51.502;10.722;2023-09-19T04:31:52;15.40;1.00
14252;DHT22;7210;51.502;10.722;2023-09-19T04:34:20;15.40;1.00
14252;DHT22;7210;51.502;10.722;2023-09-19T04:36:49;15.40;1.00
14252;DHT22;7210;51.502;10.722;2023-09-19T04:39:18;15.40;1.00
14252;DHT22;7210;51.502;10.722;2023-09-19T04:41:45;15.30;1.00
14252;DHT22;7210;51.502;10.722;2023-09-19T04:44:13;15.40;1.00
14252;DHT22;7210;51.502;10.722;2023-09-19T04:46:41;15.30;1.00
14252;DHT22;7210;51.502;10.722;2023-09-19T04:49:08;15.30;1.00
14252;DHT22;7210;51.502;10.722;2023-09-19T04:51:37;15.30;1.00
14252;DHT22;7210;51.502;10.722;2023-09-19T04:54:04;15.30;1.00
14252;DHT22;7210;51.502;10.722;2023-09-19T04:56:32;15.40;1.00
14252;DHT22;7210;51.502;10.722;2023-09-19T04:59:00;15.40;1.00
14252;DHT22;7210;51.502;10.722;2023-09-19T05:01:27;15.40;1.00
14252;DHT22;7210;51.502;10.722;2023-09-19T05:03:54;15.30;1.00
14252;DHT22;7210;51.502;10.722;2023-09-19T05:06:24;15.30;1.00
14252;DHT22;7210;51.502;10.722;2023-09-19T05:08:53;15.30;1.00
14252;DHT22;7210;51.502;10.722;2023-09-19T05:11:21;15.40;1.00
14252;DHT22;7210;51.502;10.722;2023-09-19T05:13:49;15.50;1.00
14252;DHT22;7210;51.502;10.722;2023-09-19T05:16:24;15.40;1.00
14252;DHT22;7210;51.502;10.722;2023-09-19T05:18:51;15.50;1.00
14252;DHT22;7210;51.502;10.722;2023-09-19T05:21:18;15.50;1.00
14252;DHT22;7210;51.502;10.722;2023-09-19T05:23:45;15.50;1.00
14252;DHT22;7210;51.502;10.722;2023-09-19T05:26:14;15.50;1.00
14252;DHT22;7210;51.502;10.722;2023-09-19T05:28:48;15.60;1.00
14252;DHT22;7210;51.502;10.722;2023-09-19T05:31:15;15.60;1.00
14252;DHT22;7210;51.502;10.722;2023-09-19T05:33:42;15.60;1.00
14252;DHT22;7210;51.502;10.722;2023-09-19T05:36:09;15.60;1.00
14252;DHT22;7210;51.502;10.722;2023-09-19T05:38:37;15.60;1.00
14252;DHT22;7210;51.502;10.722;2023-09-19T05:41:06;15.60;1.00
14252;DHT22;7210;51.502;10.722;2023-09-19T05:43:35;15.60;1.00
14252;DHT22;7210;51.502;10.722;2023-09-19T05:46:03;15.60;1.00
14252;DHT22;7210;51.502;10.722;2023-09-19T05:48:36;15.60;1.00
14252;DHT22;7210;51.502;10.722;2023-09-19T05:51:05;15.60;1.00
14252;DHT22;7210;51.502;10.722;2023-09-19T05:53:32;15.60;1.00
14252;DHT22;7210;51.502;10.722;2023-09-19T05:55:59;15.60;1.00
14252;DHT22;7210;51.502;10.722;2023-09-19T05:58:27;15.60;1.00
14252;DHT22;7210;51.502;10.722;2023-09-19T06:00:56;15.60;1.00
14252;DHT22;7210;51.502;10.722;2023-09-19T06:03:23;15.60;1.00
14252;DHT22;7210;51.502;10.722;2023-09-19T06:05:50;15.70;1.00
14252;DHT22;7210;51.502;10.722;2023-09-19T06:08:18;15.70;1.00
14252;DHT22;7210;51.502;10.722;2023-09-19T06:10:46;15.70;1.00
14252;DHT22;7210;51.502;10.722;2023-09-19T06:13:14;15.70;1.00
14252;DHT22;7210;51.502;10.722;2023-09-19T06:15:41;15.70;1.00
14252;DHT22;7210;51.502;10.722;2023-09-19T06:18:12;15.70;1.00
14252;DHT22;7210;51.502;10.722;2023-09-19T06:20:46;15.70;1.00
14252;DHT22;7210;51.502;10.722;2023-09-19T06:23:14;15.80;1.00
14252;DHT22;7210;51.502;10.722;2023-09-19T06:25:41;15.80;1.00
14252;DHT22;7210;51.502;10.722;2023-09-19T06:28:10;15.90;1.00
14252;DHT22;7210;51.502;10.722;2023-09-19T06:30:39;16.00;1.00
14252;DHT22;7210;51.502;10.722;2023-09-19T06:33:08;16.00;1.00
14252;DHT22;7210;51.502;10.722;2023-09-19T06:35:39;16.00;1.00
14252;DHT22;7210;51.502;10.722;2023-09-19T06:38:08;16.00;1.00
14252;DHT22;7210;51.502;10.722;2023-09-19T06:40:38;16.10;1.00
14252;DHT22;7210;51.502;10.722;2023-09-19T06:43:12;16.10;1.00
14252;DHT22;7210;51.502;10.722;2023-09-19T06:45:41;16.10;1.00
14252;DHT22;7210;51.502;10.722;2023-09-19T06:48:08;16.10;1.00
14252;DHT22;7210;51.502;10.722;2023-09-19T06:50:36;16.20;1.00
14252;DHT22;7210;51.502;10.722;2023-09-19T06:53:05;16.10;1.00
14252;DHT22;7210;51.502;10.722;2023-09-19T06:55:36;16.20;1.00
14252;DHT22;7210;51.502;10.722;2023-09-19T06:58:03;16.20;1.00
14252;DHT22;7210;51.502;10.722;2023-09-19T07:00:36;16.20;1.00
14252;DHT22;7210;51.502;10.722;2023-09-19T07:03:05;16.20;1.00
14252;DHT22;7210;51.502;10.722;2023-09-19T07:05:37;16.30;1.00
14252;DHT22;7210;51.502;10.722;2023-09-19T07:08:08;16.20;1.00
14252;DHT22;7210;51.502;10.722;2023-09-19T07:10:42;16.30;1.00
14252;DHT22;7210;51.502;10.722;2023-09-19T07:13:18;16.20;1.00
14252;DHT22;7210;51.502;10.722;2023-09-19T07:15:45;16.20;1.00
14252;DHT22;7210;51.502;10.722;2023-09-19T07:18:18;16.20;1.00
14252;DHT22;7210;51.502;10.722;2023-09-19T07:20:45;16.20;1.00
14252;DHT22;7210;51.502;10.722;2023-09-19T07:23:21;16.30;1.00
14252;DHT22;7210;51.502;10.722;2023-09-19T07:25:49;16.40;1.00
14252;DHT22;7210;51.502;10.722;2023-09-19T07:28:18;16.40;1.00
14252;DHT22;7210;51.502;10.722;2023-09-19T07:30:45;16.40;1.00
14252;DHT22;7210;51.502;10.722;2023-09-19T07:33:18;16.50;1.00
14252;DHT22;7210;51.502;10.722;2023-09-19T07:35:49;16.50;1.00
14252;DHT22;7210;51.502;10.722;2023-09-19T07:38:31;16.60;1.00
14252;DHT22;7210;51.502;10.722;2023-09-19T07:41:01;16.70;1.00
14252;DHT22;7210;51.502;10.722;2023-09-19T07:43:29;16.70;1.00
14252;DHT22;7210;51.502;10.722;2023-09-19T07:45:57;16.70;1.00
14252;DHT22;7210;51.502;10.722;2023-09-19T07:48:26;16.70;1.00
14252;DHT22;7210;51.502;10.722;2023-09-19T07:50:53;16.70;1.00
14252;DHT22;7210;51.502;10.722;2023-09-19T07:53:24;16.80;1.00
14252;DHT22;7210;51.502;10.722;2023-09-19T07:55:52;16.80;1.00
14252;DHT22;7210;51.502;10.722;2023-09-19T07:58:30;16.80;1.00
14252;DHT22;7210;51.502;10.722;2023-09-19T08:01:02;16.80;1.00
14252;DHT22;7210;51.502;10.722;2023-09-19T08:03:30;16.80;1.00
14252;DHT22;7210;51.502;10.722;2023-09-19T08:05:58;16.80;1.00
14252;DHT22;7210;51.502;10.722;2023-09-19T08:08:26;16.90;1.00
14252;DHT22;7210;51.502;10.722;2023-09-19T08:10:56;16.90;1.00
14252;DHT22;7210;51.502;10.722;2023-09-19T08:13:24;16.90;1.00
14252;DHT22;7210;51.502;10.722;2023-09-19T08:15:52;17.00;1.00
14252;DHT22;7210;51.502;10.722;2023-09-19T08:18:20;17.00;1.00
14252;DHT22;7210;51.502;10.722;2023-09-19T08:20:52;17.10;1.00
14252;DHT22;7210;51.502;10.722;2023-09-19T08:23:19;17.20;1.00
14252;DHT22;7210;51.502;10.722;2023-09-19T08:25:47;17.20;1.00
14252;DHT22;7210;51.502;10.722;2023-09-19T08:28:16;17.30;1.00
14252;DHT22;7210;51.502;10.722;2023-09-19T08:30:48;17.30;1.00
14252;DHT22;7210;51.502;10.722;2023-09-19T08:33:17;17.30;1.00
14252;DHT22;7210;51.502;10.722;2023-09-19T08:35:48;17.50;1.00
14252;DHT22;7210;51.502;10.722;2023-09-19T08:38:16;17.50;1.00
14252;DHT22;7210;51.502;10.722;2023-09-19T08:40:43;17.50;1.00
14252;DHT22;7210;51.502;10.722;2023-09-19T08:43:10;17.70;1.00
14252;DHT22;7210;51.502;10.722;2023-09-19T08:45:43;17.70;1.00
14252;DHT22;7210;51.502;10.722;2023-09-19T08:48:26;17.80;1.00
14252;DHT22;7210;51.502;10.722;2023-09-19T08:51:02;17.80;1.00
14252;DHT22;7210;51.502;10.722;2023-09-19T08:53:41;17.70;1.00
14252;DHT22;7210;51.502;10.722;2023-09-19T08:56:17;17.60;1.00
14252;DHT22;7210;51.502;10.722;2023-09-19T08:58:51;17.60;1.00
14252;DHT22;7210;51.502;10.722;2023-09-19T09:01:24;17.60;1.00
14252;DHT22;7210;51.502;10.722;2023-09-19T09:03:56;17.60;1.00
14252;DHT22;7210;51.502;10.722;2023-09-19T09:06:25;17.70;1.00
14252;DHT22;7210;51.502;10.722;2023-09-19T09:08:54;17.80;1.00
14252;DHT22;7210;51.502;10.722;2023-09-19T09:11:22;17.80;1.00
14252;DHT22;7210;51.502;10.722;2023-09-19T09:13:50;17.80;1.00
14252;DHT22;7210;51.502;10.722;2023-09-19T09:16:17;17.70;1.00
14252;DHT22;7210;51.502;10.722;2023-09-19T09:18:46;17.70;1.00
14252;DHT22;7210;51.502;10.722;2023-09-19T09:21:18;17.80;1.00
14252;DHT22;7210;51.502;10.722;2023-09-19T09:23:47;17.80;1.00
14252;DHT22;7210;51.502;10.722;2023-09-19T09:26:15;17.90;1.00
14252;DHT22;7210;51.502;10.722;2023-09-19T09:28:45;18.00;1.00
14252;DHT22;7210;51.502;10.722;2023-09-19T09:31:22;18.00;1.00
14252;DHT22;7210;51.502;10.722;2023-09-19T09:33:55;18.10;1.00
14252;DHT22;7210;51.502;10.722;2023-09-19T09:36:39;18.20;1.00
14252;DHT22;7210;51.502;10.722;2023-09-19T09:39:07;18.20;1.00
14252;DHT22;7210;51.502;10.722;2023-09-19T09:41:44;18.10;1.00
14252;DHT22;7210;51.502;10.722;2023-09-19T09:44:16;18.20;1.00
14252;DHT22;7210;51.502;10.722;2023-09-19T09:46:45;18.20;1.00
14252;DHT22;7210;51.502;10.722;2023-09-19T09:49:49;18.30;1.00
14252;DHT22;7210;51.502;10.722;2023-09-19T09:52:20;18.40;1.00
14252;DHT22;7210;51.502;10.722;2023-09-19T09:55:00;18.50;1.00
14252;DHT22;7210;51.502;10.722;2023-09-19T09:57:31;18.50;1.00
14252;DHT22;7210;51.502;10.722;2023-09-19T10:00:00;18.60;1.00
14252;DHT22;7210;51.502;10.722;2023-09-19T10:02:42;18.60;1.00
14252;DHT22;7210;51.502;10.722;2023-09-19T10:05:15;18.50;1.00
14252;DHT22;7210;51.502;10.722;2023-09-19T10:07:53;18.60;1.00
14252;DHT22;7210;51.502;10.722;2023-09-19T10:10:31;18.60;1.00
14252;DHT22;7210;51.502;10.722;2023-09-19T10:13:13;18.70;1.00
14252;DHT22;7210;51.502;10.722;2023-09-19T10:15:44;18.90;1.00
14252;DHT22;7210;51.502;10.722;2023-09-19T10:18:20;19.00;1.00
14252;DHT22;7210;51.502;10.722;2023-09-19T10:20:56;19.00;1.00
14252;DHT22;7210;51.502;10.722;2023-09-19T10:23:25;19.10;1.00
14252;DHT22;7210;51.502;10.722;2023-09-19T10:25:57;19.10;1.00
14252;DHT22;7210;51.502;10.722;2023-09-19T10:28:28;19.20;1.00
14252;DHT22;7210;51.502;10.722;2023-09-19T10:31:00;19.20;1.00
14252;DHT22;7210;51.502;10.722;2023-09-19T10:33:35;19.30;1.00
14252;DHT22;7210;51.502;10.722;2023-09-19T10:36:05;19.30;1.00
14252;DHT22;7210;51.502;10.722;2023-09-19T10:38:35;19.30;1.00
14252;DHT22;7210;51.502;10.722;2023-09-19T10:41:07;19.30;1.00
14252;DHT22;7210;51.502;10.722;2023-09-19T10:43:38;19.40;1.00
14252;DHT22;7210;51.502;10.722;2023-09-19T10:46:10;19.60;1.00
14252;DHT22;7210;51.502;10.722;2023-09-19T10:48:38;19.70;1.00
14252;DHT22;7210;51.502;10.722;2023-09-19T10:51:14;19.80;1.00
14252;DHT22;7210;51.502;10.722;2023-09-19T10:53:50;19.80;1.00
14252;DHT22;7210;51.502;10.722;2023-09-19T10:56:24;19.80;1.00
14252;DHT22;7210;51.502;10.722;2023-09-19T10:59:16;19.80;1.00
14252;DHT22;7210;51.502;10.722;2023-09-19T11:01:49;19.90;1.00
14252;DHT22;7210;51.502;10.722;2023-09-19T11:04:26;20.00;1.00
14252;DHT22;7210;51.502;10.722;2023-09-19T11:07:04;19.80;1.00
14252;DHT22;7210;51.502;10.722;2023-09-19T11:09:48;19.80;1.00
14252;DHT22;7210;51.502;10.722;2023-09-19T11:12:48;19.80;1.00
14252;DHT22;7210;51.502;10.722;2023-09-19T11:18:52;20.00;1.00
14252;DHT22;7210;51.502;10.722;2023-09-19T11:21:38;20.00;1.00
14252;DHT22;7210;51.502;10.722;2023-09-19T11:27:15;20.10;1.00
14252;DHT22;7210;51.502;10.722;2023-09-19T11:29:44;20.40;1.00
14252;DHT22;7210;51.502;10.722;2023-09-19T11:32:12;20.50;1.00
14252;DHT22;7210;51.502;10.722;2023-09-19T11:34:45;20.60;1.00
14252;DHT22;7210;51.502;10.722;2023-09-19T11:40:37;20.50;1.00
14252;DHT22;7210;51.502;10.722;2023-09-19T11:43:34;20.60;1.00
14252;DHT22;7210;51.502;10.722;2023-09-19T11:46:12;20.50;1.00
14252;DHT22;7210;51.502;10.722;2023-09-19T11:48:43;20.60;1.00
14252;DHT22;7210;51.502;10.722;2023-09-19T11:51:12;20.60;1.00
14252;DHT22;7210;51.502;10.722;2023-09-19T11:53:45;20.70;1.00
14252;DHT22;7210;51.502;10.722;2023-09-19T11:56:16;20.80;1.00
14252;DHT22;7210;51.502;10.722;2023-09-19T11:58:46;20.70;1.00
14252;DHT22;7210;51.502;10.722;2023-09-19T12:01:21;20.60;1.00
14252;DHT22;7210;51.502;10.722;2023-09-19T12:03:55;20.50;1.00
14252;DHT22;7210;51.502;10.722;2023-09-19T12:06:24;20.50;1.00
14252;DHT22;7210;51.502;10.722;2023-09-19T12:08:53;20.40;1.00
14252;DHT22;7210;51.502;10.722;2023-09-19T12:11:22;20.40;1.00
14252;DHT22;7210;51.502;10.722;2023-09-19T12:13:51;20.40;1.00
14252;DHT22;7210;51.502;10.722;2023-09-19T12:16:24;20.40;1.00
14252;DHT22;7210;51.502;10.722;2023-09-19T12:18:54;20.50;1.00
14252;DHT22;7210;51.502;10.722;2023-09-19T12:21:24;20.50;1.00
14252;DHT22;7210;51.502;10.722;2023-09-19T12:24:05;20.60;1.00
14252;DHT22;7210;51.502;10.722;2023-09-19T12:26:41;20.80;1.00
14252;DHT22;7210;51.502;10.722;2023-09-19T12:29:14;20.80;1.00
14252;DHT22;7210;51.502;10.722;2023-09-19T12:31:48;20.70;1.00
14252;DHT22;7210;51.502;10.722;2023-09-19T12:34:20;20.70;1.00
14252;DHT22;7210;51.502;10.722;2023-09-19T12:36:48;20.70;1.00
14252;DHT22;7210;51.502;10.722;2023-09-19T12:39:23;20.70;1.00
14252;DHT22;7210;51.502;10.722;2023-09-19T12:41:52;20.60;1.00
14252;DHT22;7210;51.502;10.722;2023-09-19T12:44:22;20.60;1.00
14252;DHT22;7210;51.502;10.722;2023-09-19T12:46:50;20.60;1.00
14252;DHT22;7210;51.502;10.722;2023-09-19T12:49:20;20.70;1.00
14252;DHT22;7210;51.502;10.722;2023-09-19T12:51:49;20.70;1.00
14252;DHT22;7210;51.502;10.722;2023-09-19T12:54:23;20.60;1.00
14252;DHT22;7210;51.502;10.722;2023-09-19T12:56:51;20.70;1.00
14252;DHT22;7210;51.502;10.722;2023-09-19T12:59:29;20.70;1.00
14252;DHT22;7210;51.502;10.722;2023-09-19T13:02:04;20.70;1.00
14252;DHT22;7210;51.502;10.722;2023-09-19T13:04:33;20.60;1.00
14252;DHT22;7210;51.502;10.722;2023-09-19T13:07:05;20.50;1.00
14252;DHT22;7210;51.502;10.722;2023-09-19T13:09:34;20.50;1.00
14252;DHT22;7210;51.502;10.722;2023-09-19T13:12:05;20.60;1.00
14252;DHT22;7210;51.502;10.722;2023-09-19T13:15:08;20.70;1.00
14252;DHT22;7210;51.502;10.722;2023-09-19T13:17:45;20.80;1.00
14252;DHT22;7210;51.502;10.722;2023-09-19T13:20:22;20.80;1.00
14252;DHT22;7210;51.502;10.722;2023-09-19T13:22:55;20.60;1.00
14252;DHT22;7210;51.502;10.722;2023-09-19T13:25:26;20.50;1.00
14252;DHT22;7210;51.502;10.722;2023-09-19T13:27:57;20.70;1.00
14252;DHT22;7210;51.502;10.722;2023-09-19T13:30:31;20.70;1.00
14252;DHT22;7210;51.502;10.722;2023-09-19T13:33:09;20.70;1.00
14252;DHT22;7210;51.502;10.722;2023-09-19T13:35:42;20.80;1.00
14252;DHT22;7210;51.502;10.722;2023-09-19T13:38:09;20.80;1.00
14252;DHT22;7210;51.502;10.722;2023-09-19T13:40:38;20.70;1.00
14252;DHT22;7210;51.502;10.722;2023-09-19T13:43:07;20.70;1.00
14252;DHT22;7210;51.502;10.722;2023-09-19T13:45:36;20.70;1.00
14252;DHT22;7210;51.502;10.722;2023-09-19T13:48:04;20.80;1.00
14252;DHT22;7210;51.502;10.722;2023-09-19T13:50:31;21.00;1.00
14252;DHT22;7210;51.502;10.722;2023-09-19T13:52:59;21.10;1.00
14252;DHT22;7210;51.502;10.722;2023-09-19T13:55:26;21.20;1.00
14252;DHT22;7210;51.502;10.722;2023-09-19T13:57:53;21.20;1.00
14252;DHT22;7210;51.502;10.722;2023-09-19T14:00:22;21.10;1.00
14252;DHT22;7210;51.502;10.722;2023-09-19T14:02:51;21.20;1.00
14252;DHT22;7210;51.502;10.722;2023-09-19T14:05:19;21.20;1.00
14252;DHT22;7210;51.502;10.722;2023-09-19T14:07:47;21.30;1.00
14252;DHT22;7210;51.502;10.722;2023-09-19T14:10:18;21.40;1.00
14252;DHT22;7210;51.502;10.722;2023-09-19T14:12:46;21.20;1.00
14252;DHT22;7210;51.502;10.722;2023-09-19T14:15:14;21.20;1.00
14252;DHT22;7210;51.502;10.722;2023-09-19T14:17:41;21.30;1.00
14252;DHT22;7210;51.502;10.722;2023-09-19T14:20:12;21.40;1.00
14252;DHT22;7210;51.502;10.722;2023-09-19T14:22:41;21.60;1.00
14252;DHT22;7210;51.502;10.722;2023-09-19T14:25:08;21.50;1.00
14252;DHT22;7210;51.502;10.722;2023-09-19T14:27:36;21.30;1.00
14252;DHT22;7210;51.502;10.722;2023-09-19T14:30:07;21.30;1.00
14252;DHT22;7210;51.502;10.722;2023-09-19T14:32:35;21.20;1.00
14252;DHT22;7210;51.502;10.722;2023-09-19T14:35:02;21.20;1.00
14252;DHT22;7210;51.502;10.722;2023-09-19T14:37:37;21.10;1.00
14252;DHT22;7210;51.502;10.722;2023-09-19T14:40:06;21.20;1.00
14252;DHT22;7210;51.502;10.722;2023-09-19T14:42:38;21.30;1.00
14252;DHT22;7210;51.502;10.722;2023-09-19T14:45:12;21.20;1.00
14252;DHT22;7210;51.502;10.722;2023-09-19T14:47:42;21.00;1.00
14252;DHT22;7210;51.502;10.722;2023-09-19T14:50:10;21.00;1.00
14252;DHT22;7210;51.502;10.722;2023-09-19T14:52:39;21.20;1.00
14252;DHT22;7210;51.502;10.722;2023-09-19T14:55:07;21.10;1.00
14252;DHT22;7210;51.502;10.722;2023-09-19T14:57:41;21.10;1.00
14252;DHT22;7210;51.502;10.722;2023-09-19T15:00:15;21.10;1.00
14252;DHT22;7210;51.502;10.722;2023-09-19T15:02:54;21.30;1.00
14252;DHT22;7210;51.502;10.722;2023-09-19T15:05:21;21.20;1.00
14252;DHT22;7210;51.502;10.722;2023-09-19T15:07:50;21.20;1.00
14252;DHT22;7210;51.502;10.722;2023-09-19T15:10:18;21.10;1.00
14252;DHT22;7210;51.502;10.722;2023-09-19T15:12:45;21.20;1.00
14252;DHT22;7210;51.502;10.722;2023-09-19T15:15:18;21.10;1.00
14252;DHT22;7210;51.502;10.722;2023-09-19T15:17:48;21.20;1.00
14252;DHT22;7210;51.502;10.722;2023-09-19T15:20:15;21.30;1.00
14252;DHT22;7210;51.502;10.722;2023-09-19T15:22:43;21.10;1.00
14252;DHT22;7210;51.502;10.722;2023-09-19T15:25:11;21.10;1.00
14252;DHT22;7210;51.502;10.722;2023-09-19T15:27:38;21.00;1.00
14252;DHT22;7210;51.502;10.722;2023-09-19T15:30:08;20.80;1.00
14252;DHT22;7210;51.502;10.722;2023-09-19T15:32:36;20.90;1.00
14252;DHT22;7210;51.502;10.722;2023-09-19T15:35:04;20.80;1.00
14252;DHT22;7210;51.502;10.722;2023-09-19T15:37:33;20.70;1.00
14252;DHT22;7210;51.502;10.722;2023-09-19T15:40:00;20.80;1.00
14252;DHT22;7210;51.502;10.722;2023-09-19T15:42:29;20.80;1.00
14252;DHT22;7210;51.502;10.722;2023-09-19T15:44:57;20.70;1.00
14252;DHT22;7210;51.502;10.722;2023-09-19T15:47:24;20.80;1.00
14252;DHT22;7210;51.502;10.722;2023-09-19T15:49:52;20.80;1.00
14252;DHT22;7210;51.502;10.722;2023-09-19T15:52:20;20.70;1.00
14252;DHT22;7210;51.502;10.722;2023-09-19T15:54:47;20.80;1.00
14252;DHT22;7210;51.502;10.722;2023-09-19T15:57:17;20.50;1.00
14252;DHT22;7210;51.502;10.722;2023-09-19T15:59:55;20.40;1.00
14252;DHT22;7210;51.502;10.722;2023-09-19T16:02:23;20.20;1.00
14252;DHT22;7210;51.502;10.722;2023-09-19T16:04:54;20.10;1.00
14252;DHT22;7210;51.502;10.722;2023-09-19T16:07:21;20.10;1.00
14252;DHT22;7210;51.502;10.722;2023-09-19T16:09:49;20.00;1.00
14252;DHT22;7210;51.502;10.722;2023-09-19T16:12:16;19.90;1.00
14252;DHT22;7210;51.502;10.722;2023-09-19T16:14:43;19.90;1.00
14252;DHT22;7210;51.502;10.722;2023-09-19T16:17:12;19.80;1.00
14252;DHT22;7210;51.502;10.722;2023-09-19T16:19:39;19.70;1.00
14252;DHT22;7210;51.502;10.722;2023-09-19T16:22:09;19.50;1.00